createdAt,value
2018-11-07T00:01:01.003Z,78.15
2018-11-07T00:03:28.915Z,78.48
2018-11-07T00:05:56.895Z,78.44
2018-11-07T00:08:24.866Z,79.20
2018-11-07T00:10:57.782Z,78.50
2018-11-07T00:13:25.679Z,78.79
2018-11-07T00:15:53.548Z,78.63
2018-11-07T00:18:21.495Z,78.99
2018-11-07T00:20:49.335Z,79.50
2018-11-07T00:23:17.164Z,78.76
2018-11-07T00:25:45.059Z,79.06
2018-11-07T00:28:12.886Z,79.22
2018-11-07T00:30:40.760Z,79.07
2018-11-07T00:33:08.632Z,79.06
2018-11-07T00:35:36.594Z,79.52
2018-11-07T00:38:05.154Z,79.15
2018-11-07T00:40:33.089Z,79.32
2018-11-07T00:43:00.985Z,79.11
2018-11-07T00:45:28.942Z,78.88
2018-11-07T00:47:56.955Z,78.91
2018-11-07T00:50:24.885Z,78.69
2018-11-07T00:52:53.867Z,78.54
2018-11-07T00:55:21.789Z,78.58
2018-11-07T00:57:49.776Z,78.25
2018-11-07T01:00:19.729Z,78.28
2018-11-07T01:02:48.618Z,78.46
2018-11-07T01:05:16.604Z,78.62
2018-11-07T01:07:45.585Z,78.50
2018-11-07T01:10:13.576Z,78.26
2018-11-07T01:12:42.250Z,78.23
2018-11-07T01:15:11.055Z,78.18
2018-11-07T01:17:39.068Z,78.04
2018-11-07T01:20:08.695Z,78.14
2018-11-07T01:22:36.621Z,77.74
2018-11-07T01:25:05.928Z,77.53
2018-11-07T01:27:33.897Z,77.48
2018-11-07T01:30:01.909Z,77.36
2018-11-07T01:32:29.844Z,77.15
2018-11-07T01:34:57.853Z,77.30
2018-11-07T01:37:25.816Z,77.22
2018-11-07T01:39:53.788Z,77.15
2018-11-07T01:42:21.776Z,77.01
2018-11-07T01:44:49.785Z,76.91
2018-11-07T01:47:17.700Z,77.08
2018-11-07T01:49:45.710Z,76.89
2018-11-07T01:52:13.605Z,76.79
2018-11-07T01:54:41.590Z,76.74
2018-11-07T01:57:09.508Z,77.68
2018-11-07T01:59:37.437Z,77.92
2018-11-07T02:02:05.515Z,77.75
2018-11-07T02:04:33.443Z,77.43
2018-11-07T02:07:01.504Z,79.11
2018-11-07T02:09:29.495Z,78.96
2018-11-07T02:11:57.383Z,78.18
2018-11-07T02:14:25.369Z,78.21
2018-11-07T02:16:53.335Z,77.92
2018-11-07T02:19:21.301Z,77.97
2018-11-07T02:21:49.431Z,77.92
2018-11-07T02:24:17.417Z,77.80
2018-11-07T02:26:45.327Z,77.73
2018-11-07T02:29:14.404Z,77.84
2018-11-07T02:31:44.444Z,77.96
2018-11-07T02:34:12.736Z,77.63
2018-11-07T02:36:40.782Z,77.49
2018-11-07T02:39:11.000Z,77.60
2018-11-07T02:41:39.239Z,77.77
2018-11-07T02:44:07.335Z,77.36
2018-11-07T02:46:35.457Z,77.49
2018-11-07T02:49:03.697Z,77.42
2018-11-07T02:51:31.709Z,77.09
2018-11-07T02:54:00.505Z,77.11
2018-11-07T02:56:28.475Z,76.95
2018-11-07T02:58:56.847Z,76.72
2018-11-07T03:01:24.967Z,76.86
2018-11-07T03:03:52.912Z,76.83
2018-11-07T03:06:20.846Z,77.07
2018-11-07T03:08:48.780Z,76.97
2018-11-07T03:11:16.747Z,76.87
2018-11-07T03:13:44.694Z,76.91
2018-11-07T03:16:12.663Z,76.93
2018-11-07T03:18:40.658Z,76.98
2018-11-07T03:21:09.580Z,77.09
2018-11-07T03:23:37.503Z,77.01
2018-11-07T03:26:05.509Z,77.02
2018-11-07T03:28:33.401Z,76.72
2018-11-07T03:31:01.444Z,76.83
2018-11-07T03:33:29.368Z,76.85
2018-11-07T03:35:57.330Z,76.68
2018-11-07T03:38:25.334Z,76.67
2018-11-07T03:40:53.300Z,77.00
2018-11-07T03:43:21.308Z,76.49
2018-11-07T03:45:54.709Z,76.69
2018-11-07T03:48:22.880Z,76.68
2018-11-07T03:50:50.892Z,76.65
2018-11-07T03:53:18.947Z,76.67
2018-11-07T03:55:46.864Z,76.40
2018-11-07T03:58:14.756Z,76.54
2018-11-07T04:00:42.741Z,76.50
2018-11-07T04:03:10.701Z,76.43
2018-11-07T04:05:38.600Z,76.27
2018-11-07T04:08:06.643Z,76.47
2018-11-07T04:10:34.647Z,76.35
2018-11-07T04:13:02.552Z,76.50
2018-11-07T04:15:30.684Z,76.24
2018-11-07T04:17:58.623Z,76.07
2018-11-07T04:20:26.562Z,76.17
2018-11-07T04:22:54.497Z,76.00
2018-11-07T04:25:22.437Z,76.46
2018-11-07T04:27:50.347Z,76.19
2018-11-07T04:30:18.302Z,76.05
2018-11-07T04:32:46.273Z,76.17
2018-11-07T04:35:14.298Z,76.14
2018-11-07T04:37:42.587Z,76.02
2018-11-07T04:40:11.883Z,76.08
2018-11-07T04:42:39.970Z,76.05
2018-11-07T04:45:08.025Z,76.07
2018-11-07T04:47:35.998Z,75.95
2018-11-07T04:50:04.908Z,76.29
2018-11-07T04:52:32.861Z,76.25
2018-11-07T04:55:00.792Z,76.39
2018-11-07T04:57:28.765Z,76.83
2018-11-07T04:59:56.694Z,76.59
2018-11-07T05:02:24.674Z,76.84
2018-11-07T05:04:52.643Z,76.94
2018-11-07T05:07:20.649Z,76.90
2018-11-07T05:09:48.600Z,76.77
2018-11-07T05:12:16.610Z,76.78
2018-11-07T05:14:44.496Z,76.52
2018-11-07T05:17:12.437Z,76.80
2018-11-07T05:19:40.393Z,76.85
2018-11-07T05:22:08.331Z,77.02
2018-11-07T05:24:36.322Z,77.28
2018-11-07T05:27:04.608Z,77.81
2018-11-07T05:29:32.536Z,77.78
2018-11-07T05:32:00.574Z,77.63
2018-11-07T05:34:28.463Z,77.54
2018-11-07T05:36:56.527Z,77.55
2018-11-07T05:39:24.561Z,77.44
2018-11-07T05:41:52.491Z,77.46
2018-11-07T05:44:20.422Z,77.38
2018-11-07T05:46:48.308Z,77.37
2018-11-07T05:49:16.227Z,76.99
2018-11-07T05:51:44.149Z,76.92
2018-11-07T05:54:12.085Z,77.21
2018-11-07T05:56:40.089Z,76.92
2018-11-07T05:59:08.148Z,76.80
2018-11-07T06:01:36.069Z,76.67
2018-11-07T06:04:04.523Z,76.58
2018-11-07T06:06:32.475Z,76.40
2018-11-07T06:09:00.364Z,76.18
2018-11-07T06:11:28.306Z,75.92
2018-11-07T06:13:56.288Z,76.02
2018-11-07T06:16:24.344Z,75.77
2018-11-07T06:18:52.240Z,75.70
2018-11-07T06:21:20.170Z,75.74
2018-11-07T06:23:48.215Z,75.76
2018-11-07T06:26:16.258Z,75.62
2018-11-07T06:28:44.182Z,75.96
2018-11-07T06:31:12.096Z,76.06
2018-11-07T06:33:40.008Z,75.99
2018-11-07T06:36:07.994Z,75.76
2018-11-07T06:38:35.884Z,75.87
2018-11-07T06:41:03.885Z,75.85
2018-11-07T06:43:31.787Z,76.26
2018-11-07T06:45:59.785Z,75.92
2018-11-07T06:48:27.825Z,76.08
2018-11-07T06:50:55.870Z,76.33
2018-11-07T06:53:23.805Z,75.91
2018-11-07T06:55:51.771Z,75.91
2018-11-07T06:58:19.755Z,75.80
2018-11-07T07:00:47.749Z,75.75
2018-11-07T07:03:15.988Z,75.90
2018-11-07T07:05:44.013Z,75.96
2018-11-07T07:08:12.028Z,76.05
2018-11-07T07:10:40.123Z,76.26
2018-11-07T07:13:08.404Z,75.86
2018-11-07T07:15:36.429Z,75.89
2018-11-07T07:18:04.537Z,76.20
2018-11-07T07:20:32.471Z,76.21
2018-11-07T07:23:00.513Z,76.09
2018-11-07T07:25:28.511Z,76.02
2018-11-07T07:27:56.453Z,76.11
2018-11-07T07:30:24.898Z,76.41
2018-11-07T07:32:52.898Z,76.46
2018-11-07T07:35:20.846Z,76.70
2018-11-07T07:37:48.871Z,76.59
2018-11-07T07:40:17.103Z,76.80
2018-11-07T07:42:45.781Z,76.78
2018-11-07T07:45:15.478Z,76.40
2018-11-07T07:47:43.980Z,76.71
2018-11-07T07:50:13.240Z,76.50
2018-11-07T07:52:41.989Z,76.64
2018-11-07T07:55:10.221Z,76.44
2018-11-07T07:57:39.025Z,76.43
2018-11-07T08:00:13.147Z,76.52
2018-11-07T08:02:43.544Z,77.14
2018-11-07T08:05:11.623Z,77.19
2018-11-07T08:07:40.121Z,77.09
2018-11-07T08:10:10.320Z,77.39
2018-11-07T08:12:38.304Z,77.28
2018-11-07T08:15:07.737Z,77.70
2018-11-07T08:17:35.824Z,77.41
2018-11-07T08:20:05.089Z,77.47
2018-11-07T08:22:33.335Z,77.14
2018-11-07T08:25:01.585Z,77.06
2018-11-07T08:27:29.817Z,77.19
2018-11-07T08:29:58.214Z,77.00
2018-11-07T08:32:26.482Z,77.20
2018-11-07T08:34:54.617Z,77.15
2018-11-07T08:37:22.685Z,76.84
2018-11-07T08:39:50.840Z,76.93
2018-11-07T08:42:19.132Z,77.16
2018-11-07T08:44:47.142Z,76.99
2018-11-07T08:47:15.200Z,76.93
2018-11-07T08:49:43.219Z,77.00
2018-11-07T08:52:11.271Z,76.87
2018-11-07T08:54:39.313Z,76.83
2018-11-07T08:57:07.419Z,76.50
2018-11-07T08:59:35.532Z,76.27
2018-11-07T09:02:03.592Z,76.30
2018-11-07T09:04:31.597Z,76.10
2018-11-07T09:06:59.674Z,75.76
2018-11-07T09:09:27.797Z,76.04
2018-11-07T09:11:55.882Z,75.80
2018-11-07T09:14:23.972Z,75.31
2018-11-07T09:16:52.049Z,75.17
2018-11-07T09:19:20.468Z,74.97
2018-11-07T09:21:48.645Z,75.12
2018-11-07T09:24:17.081Z,74.76
2018-11-07T09:26:45.268Z,74.31
2018-11-07T09:29:13.522Z,74.66
2018-11-07T09:31:41.501Z,74.53
2018-11-07T09:34:09.558Z,74.39
2018-11-07T09:36:38.041Z,74.18
2018-11-07T09:39:07.800Z,74.05
2018-11-07T09:41:35.880Z,73.94
2018-11-07T09:44:05.312Z,73.66
2018-11-07T09:46:33.370Z,73.49
2018-11-07T09:49:01.518Z,73.11
2018-11-07T09:51:29.931Z,72.95
2018-11-07T09:53:58.177Z,72.92
2018-11-07T09:56:26.346Z,72.52
2018-11-07T09:58:55.351Z,72.34
2018-11-07T10:01:23.472Z,72.35
2018-11-07T10:03:51.729Z,72.00
2018-11-07T10:06:19.767Z,71.98
2018-11-07T10:08:47.699Z,72.08
2018-11-07T10:11:15.688Z,72.20
2018-11-07T10:13:43.650Z,72.14
2018-11-07T10:16:11.696Z,71.96
2018-11-07T10:18:39.677Z,71.74
2018-11-07T10:21:07.552Z,72.05
2018-11-07T10:23:35.590Z,71.39
2018-11-07T10:26:04.608Z,71.47
2018-11-07T10:28:32.791Z,71.44
2018-11-07T10:31:00.849Z,71.22
2018-11-07T10:33:28.972Z,70.99
2018-11-07T10:35:57.053Z,71.08
2018-11-07T10:38:25.175Z,70.79
2018-11-07T10:40:53.259Z,71.00
2018-11-07T10:43:22.841Z,70.65
2018-11-07T10:45:51.021Z,70.75
2018-11-07T10:48:19.069Z,70.46
2018-11-07T10:50:47.159Z,69.06
2018-11-07T10:53:15.225Z,69.11
2018-11-07T10:55:43.276Z,69.15
2018-11-07T10:58:11.380Z,68.26
2018-11-07T11:00:44.909Z,67.81
2018-11-07T11:03:18.401Z,67.67
2018-11-07T11:05:46.762Z,67.52
2018-11-07T11:08:14.980Z,66.94
2018-11-07T11:10:43.114Z,66.86
2018-11-07T11:13:12.255Z,67.07
2018-11-07T11:15:40.278Z,67.24
2018-11-07T11:18:08.346Z,67.41
2018-11-07T11:20:36.504Z,67.09
2018-11-07T11:23:04.794Z,67.01
2018-11-07T11:25:33.063Z,67.50
2018-11-07T11:28:01.211Z,66.34
2018-11-07T11:30:29.456Z,66.20
2018-11-07T11:32:57.598Z,65.83
2018-11-07T11:35:25.686Z,65.91
2018-11-07T11:37:53.772Z,66.32
2018-11-07T11:40:21.859Z,66.46
2018-11-07T11:42:50.000Z,66.16
2018-11-07T11:45:18.187Z,65.43
2018-11-07T11:47:46.522Z,64.47
2018-11-07T11:50:17.792Z,64.51
2018-11-07T11:52:46.721Z,64.34
2018-11-07T11:55:14.957Z,64.18
2018-11-07T11:57:43.785Z,63.78
2018-11-07T12:00:14.556Z,64.87
2018-11-07T12:02:42.709Z,64.18
2018-11-07T12:05:12.143Z,64.18
2018-11-07T12:07:40.643Z,64.59
2018-11-07T12:10:15.613Z,64.73
2018-11-07T12:12:45.485Z,64.87
2018-11-07T12:15:14.089Z,65.00
2018-11-07T12:17:42.279Z,65.15
2018-11-07T12:20:10.975Z,64.66
2018-11-07T12:22:39.228Z,64.00
2018-11-07T12:25:13.936Z,64.15
2018-11-07T12:27:45.297Z,63.58
2018-11-07T12:30:15.853Z,63.60
2018-11-07T12:32:45.375Z,62.75
2018-11-07T12:35:15.057Z,62.68
2018-11-07T12:37:43.230Z,63.07
2018-11-07T12:40:11.762Z,62.04
2018-11-07T12:42:39.822Z,61.59
2018-11-07T12:45:09.512Z,61.38
2018-11-07T12:47:38.419Z,62.18
2018-11-07T12:50:10.943Z,61.93
2018-11-07T12:52:39.026Z,61.71
2018-11-07T12:55:08.422Z,61.49
2018-11-07T12:57:37.024Z,61.55
2018-11-07T13:00:07.304Z,61.47
2018-11-07T13:02:35.362Z,61.02
2018-11-07T13:05:03.463Z,61.13
2018-11-07T13:07:31.566Z,61.23
2018-11-07T13:09:59.941Z,61.71
2018-11-07T13:12:28.005Z,61.67
2018-11-07T13:14:56.177Z,61.36
2018-11-07T13:17:24.242Z,61.45
2018-11-07T13:19:52.225Z,60.93
2018-11-07T13:22:20.300Z,61.06
2018-11-07T13:24:48.318Z,61.07
2018-11-07T13:27:16.428Z,61.08
2018-11-07T13:29:44.404Z,61.51
2018-11-07T13:32:12.427Z,61.63
2018-11-07T13:34:40.524Z,61.85
2018-11-07T13:37:08.734Z,61.65
2018-11-07T13:39:36.734Z,61.65
2018-11-07T13:42:04.991Z,61.82
2018-11-07T13:44:33.076Z,62.02
2018-11-07T13:47:01.172Z,62.32
2018-11-07T13:49:29.192Z,62.33
2018-11-07T13:51:57.184Z,62.75
2018-11-07T13:54:25.262Z,63.25
2018-11-07T13:56:53.359Z,62.80
2018-11-07T13:59:21.491Z,62.68
2018-11-07T14:01:49.471Z,63.11
2018-11-07T14:04:17.445Z,62.90
2018-11-07T14:06:45.520Z,63.34
2018-11-07T14:09:13.650Z,63.53
2018-11-07T14:11:41.753Z,63.71
2018-11-07T14:14:09.857Z,63.01
2018-11-07T14:16:38.229Z,63.13
2018-11-07T14:19:06.802Z,63.31
2018-11-07T14:21:34.865Z,63.72
2018-11-07T14:24:03.022Z,63.35
2018-11-07T14:26:31.196Z,63.80
2018-11-07T14:28:59.314Z,63.56
2018-11-07T14:31:27.450Z,63.44
2018-11-07T14:33:56.665Z,63.37
2018-11-07T14:36:25.509Z,63.36
2018-11-07T14:38:53.607Z,63.63
2018-11-07T14:41:21.810Z,63.50
2018-11-07T14:43:50.150Z,63.73
2018-11-07T14:46:18.323Z,63.66
2018-11-07T14:48:46.278Z,63.67
2018-11-07T14:51:14.256Z,63.94
2018-11-07T14:53:42.886Z,63.76
2018-11-07T14:56:10.923Z,64.01
2018-11-07T14:58:39.208Z,63.74
2018-11-07T15:01:07.260Z,63.90
2018-11-07T15:03:35.456Z,64.14
2018-11-07T15:06:03.583Z,64.39
2018-11-07T15:08:31.644Z,64.40
2018-11-07T15:10:59.539Z,64.79
2018-11-07T15:13:27.514Z,64.40
2018-11-07T15:15:55.541Z,64.37
2018-11-07T15:18:23.625Z,64.14
2018-11-07T15:20:51.767Z,64.21
2018-11-07T15:23:19.809Z,64.36
2018-11-07T15:25:47.898Z,64.38
2018-11-07T15:28:16.768Z,64.03
2018-11-07T15:30:44.857Z,64.22
2018-11-07T15:33:12.895Z,64.19
2018-11-07T15:35:40.951Z,64.48
2018-11-07T15:38:08.944Z,64.69
2018-11-07T15:40:37.048Z,64.58
2018-11-07T15:43:05.112Z,64.42
2018-11-07T15:45:33.188Z,64.48
2018-11-07T15:50:44.872Z,65.01
2018-11-07T15:53:12.989Z,65.42
2018-11-07T15:55:40.998Z,65.00
2018-11-07T15:58:09.114Z,64.64
2018-11-07T16:00:37.324Z,64.62
2018-11-07T16:03:05.492Z,64.82
2018-11-07T16:05:33.612Z,65.25
2018-11-07T16:08:01.624Z,65.11
2018-11-07T16:10:30.684Z,64.86
2018-11-07T16:12:58.713Z,65.09
2018-11-07T16:15:26.898Z,65.14
2018-11-07T16:17:54.855Z,65.66
2018-11-07T16:20:22.932Z,65.82
2018-11-07T16:22:50.980Z,65.81
2018-11-07T16:25:18.978Z,65.76
2018-11-07T16:27:46.909Z,66.23
2018-11-07T16:30:18.324Z,66.26
2018-11-07T16:32:46.358Z,66.29
2018-11-07T16:35:14.810Z,66.01
2018-11-07T16:37:43.094Z,65.96
2018-11-07T16:40:12.598Z,65.93
2018-11-07T16:42:41.362Z,65.67
2018-11-07T16:45:10.397Z,65.54
2018-11-07T16:47:38.432Z,66.06
2018-11-07T16:50:07.513Z,66.25
2018-11-07T16:52:36.633Z,66.23
2018-11-07T16:55:04.728Z,66.14
2018-11-07T16:57:32.905Z,65.93
2018-11-07T17:00:00.864Z,66.03
2018-11-07T17:02:29.020Z,65.37
2018-11-07T17:04:57.114Z,65.92
2018-11-07T17:07:25.117Z,65.00
2018-11-07T17:09:53.132Z,64.74
2018-11-07T17:12:21.204Z,64.90
2018-11-07T17:14:49.376Z,65.00
2018-11-07T17:17:17.517Z,65.05
2018-11-07T17:19:45.570Z,64.55
2018-11-07T17:22:13.716Z,64.53
2018-11-07T17:24:41.935Z,64.65
2018-11-07T17:27:14.141Z,64.40
2018-11-07T17:29:42.144Z,64.79
2018-11-07T17:32:10.287Z,64.52
2018-11-07T17:34:43.811Z,64.80
2018-11-07T17:37:12.579Z,64.72
2018-11-07T17:39:40.656Z,64.28
2018-11-07T17:42:08.814Z,64.43
2018-11-07T17:44:36.888Z,64.67
2018-11-07T17:47:05.414Z,64.58
2018-11-07T17:49:34.286Z,64.08
2018-11-07T17:52:02.534Z,64.13
2018-11-07T17:54:33.520Z,64.49
2018-11-07T17:57:02.015Z,64.62
2018-11-07T17:59:30.041Z,64.37
2018-11-07T18:01:58.861Z,64.76
2018-11-07T18:04:27.042Z,64.82
2018-11-07T18:06:55.052Z,64.82
2018-11-07T18:09:23.173Z,65.73
2018-11-07T18:11:52.298Z,66.09
2018-11-07T18:14:20.440Z,66.63
2018-11-07T18:16:52.549Z,66.48
2018-11-07T18:19:20.739Z,66.93
2018-11-07T18:21:48.784Z,67.29
2018-11-07T18:24:17.758Z,67.54
2018-11-07T18:26:45.870Z,67.38
2018-11-07T18:29:13.901Z,67.77
2018-11-07T18:31:41.885Z,68.02
2018-11-07T18:34:09.880Z,68.23
2018-11-07T18:36:41.114Z,68.11
2018-11-07T18:39:10.761Z,68.43
2018-11-07T18:41:39.034Z,68.39
2018-11-07T18:44:07.014Z,68.97
2018-11-07T18:46:35.070Z,69.21
2018-11-07T18:49:03.200Z,69.08
2018-11-07T18:51:31.277Z,69.35
2018-11-07T18:53:59.330Z,69.48
2018-11-07T18:56:27.368Z,69.43
2018-11-07T18:58:55.482Z,69.88
2018-11-07T19:01:23.335Z,69.86
2018-11-07T19:03:51.289Z,69.69
2018-11-07T19:06:19.525Z,69.48
2018-11-07T19:08:47.522Z,69.81
2018-11-07T19:11:15.511Z,69.79
2018-11-07T19:13:43.525Z,69.82
2018-11-07T19:16:11.618Z,70.09
2018-11-07T19:18:39.587Z,70.16
2018-11-07T19:21:08.728Z,69.83
2018-11-07T19:23:36.764Z,70.22
2018-11-07T19:26:05.600Z,70.27
2018-11-07T19:28:33.592Z,70.28
2018-11-07T19:31:02.403Z,70.20
2018-11-07T19:33:30.506Z,70.34
2018-11-07T19:35:58.568Z,70.77
2018-11-07T19:38:26.614Z,70.44
2018-11-07T19:40:57.514Z,70.04
2018-11-07T19:43:28.895Z,70.18
2018-11-07T19:46:02.494Z,70.41
2018-11-07T19:48:30.479Z,70.63
2018-11-07T19:50:58.413Z,70.27
2018-11-07T19:53:26.727Z,70.65
2018-11-07T19:55:55.037Z,70.83
2018-11-07T19:58:23.004Z,70.77
2018-11-07T20:00:51.026Z,70.60
2018-11-07T20:03:19.030Z,70.86
2018-11-07T20:05:47.061Z,70.70
2018-11-07T20:08:15.199Z,70.92
2018-11-07T20:10:43.423Z,70.96
2018-11-07T20:13:11.401Z,71.56
2018-11-07T20:15:39.425Z,71.49
2018-11-07T20:18:07.509Z,71.49
2018-11-07T20:20:35.540Z,71.44
2018-11-07T20:23:03.673Z,71.66
2018-11-07T20:25:31.798Z,71.71
2018-11-07T20:27:59.929Z,71.77
2018-11-07T20:30:27.941Z,71.61
2018-11-07T20:32:55.980Z,71.46
2018-11-07T20:35:24.030Z,71.67
2018-11-07T20:37:52.096Z,71.29
2018-11-07T20:40:21.064Z,71.15
2018-11-07T20:42:49.093Z,71.48
2018-11-07T20:45:17.493Z,71.48
2018-11-07T20:47:46.116Z,71.64
2018-11-07T20:50:16.358Z,71.47
2018-11-07T20:52:45.693Z,71.83
2018-11-07T20:55:14.485Z,71.71
2018-11-07T20:57:42.859Z,71.70
2018-11-07T21:00:13.022Z,71.71
2018-11-07T21:02:42.025Z,71.54
2018-11-07T21:05:10.374Z,71.73
2018-11-07T21:07:38.845Z,71.52
2018-11-07T21:10:10.246Z,71.54
2018-11-07T21:12:38.441Z,71.70
2018-11-07T21:15:07.146Z,71.71
2018-11-07T21:17:35.173Z,71.72
2018-11-07T21:20:03.977Z,71.64
2018-11-07T21:22:32.006Z,71.63
2018-11-07T21:24:59.991Z,71.64
2018-11-07T21:27:28.024Z,71.57
2018-11-07T21:29:56.065Z,71.67
2018-11-07T21:32:24.334Z,71.90
2018-11-07T21:34:54.220Z,71.76
2018-11-07T21:37:22.410Z,72.01
2018-11-07T21:39:50.536Z,71.78
2018-11-07T21:42:18.586Z,71.85
2018-11-07T21:44:46.824Z,71.77
2018-11-07T21:47:14.918Z,71.85
2018-11-07T21:49:43.067Z,71.80
2018-11-07T21:52:11.118Z,71.82
2018-11-07T21:54:39.170Z,71.87
2018-11-07T21:57:07.197Z,71.95
2018-11-07T21:59:35.309Z,72.03
2018-11-07T22:02:03.418Z,71.96
2018-11-07T22:04:31.823Z,72.52
2018-11-07T22:06:59.864Z,72.03
2018-11-07T22:09:27.917Z,72.17
2018-11-07T22:11:55.975Z,71.95
2018-11-07T22:14:24.028Z,72.07
2018-11-07T22:16:52.126Z,71.80
2018-11-07T22:19:20.121Z,71.86
2018-11-07T22:21:48.130Z,71.81
2018-11-07T22:24:16.207Z,72.02
2018-11-07T22:26:44.302Z,71.92
2018-11-07T22:29:12.345Z,71.84
2018-11-07T22:31:40.307Z,71.91
2018-11-07T22:34:08.218Z,71.90
2018-11-07T22:36:36.227Z,71.97
2018-11-07T22:39:06.986Z,71.91
2018-11-07T22:41:34.931Z,71.78
2018-11-07T22:44:02.945Z,71.90
2018-11-07T22:46:30.949Z,71.77
2018-11-07T22:48:58.987Z,71.93
2018-11-07T22:51:27.017Z,71.84
2018-11-07T22:53:54.912Z,71.99
2018-11-07T22:56:22.848Z,72.05
2018-11-07T22:58:50.783Z,71.99
2018-11-07T23:01:22.532Z,72.02
2018-11-07T23:03:51.628Z,72.13
2018-11-07T23:06:19.544Z,72.01
2018-11-07T23:08:47.618Z,72.09
2018-11-07T23:11:15.560Z,72.35
2018-11-07T23:13:43.502Z,72.40
2018-11-07T23:16:11.466Z,72.46
2018-11-07T23:18:39.444Z,72.59
2018-11-07T23:21:07.427Z,72.54
2018-11-07T23:23:35.425Z,72.49
2018-11-07T23:26:03.477Z,72.40
2018-11-07T23:28:31.437Z,72.36
2018-11-07T23:30:59.362Z,72.41
2018-11-07T23:33:27.329Z,72.72
2018-11-07T23:35:55.250Z,72.55
2018-11-07T23:38:23.278Z,72.67
2018-11-07T23:40:51.364Z,72.56
2018-11-07T23:43:19.394Z,72.79
2018-11-07T23:45:47.437Z,72.75
2018-11-07T23:48:15.442Z,73.03
2018-11-07T23:50:43.415Z,72.91
2018-11-07T23:53:13.320Z,73.22
2018-11-07T23:55:42.838Z,73.40
2018-11-07T23:58:11.080Z,73.70
